Time;durP1;ratioP1;P1;durP2;ratioP2;P2;SDS_P1;SDS_P2;PMS_P1;PMS_P2;Temp;Humidity;BMP_temperature;BMP_pressure;BME280_temperature;BME280_humidity;BME280_pressure;Samples;Min_cycle;Max_cycle;Signal;HPM_P1;HPM_P2
2023/04/08 00:01:02;;;;;;;17.20;14.03;;;6.90;1.00;;;;;;4924918;28;20245;-80
2023/04/08 00:03:31;;;;;;;17.53;14.33;;;6.90;1.00;;;;;;4918586;28;20467;-80
2023/04/08 00:05:59;;;;;;;17.97;15.27;;;6.90;1.00;;;;;;4927168;28;20511;-80
2023/04/08 00:08:26;;;;;;;22.20;17.80;;;7.00;1.00;;;;;;4925573;28;20467;-80
2023/04/08 00:10:54;;;;;;;21.42;16.40;;;6.90;1.00;;;;;;4929154;28;20240;-80
2023/04/08 00:13:22;;;;;;;20.50;16.23;;;7.00;1.00;;;;;;4922763;28;20326;-77
2023/04/08 00:15:49;;;;;;;21.47;17.50;;;7.10;1.00;;;;;;4925356;28;21257;-78
2023/04/08 00:18:17;;;;;;;21.53;17.00;;;7.10;1.00;;;;;;4923376;28;20457;-78
2023/04/08 00:20:44;;;;;;;24.00;18.40;;;7.10;1.00;;;;;;4927751;28;20552;-78
2023/04/08 00:23:11;;;;;;;24.03;18.43;;;7.10;1.00;;;;;;4922852;28;20554;-78
2023/04/08 00:25:38;;;;;;;23.47;18.40;;;7.00;1.00;;;;;;4922885;28;20881;-77
2023/04/08 00:28:07;;;;;;;24.03;18.27;;;7.00;1.00;;;;;;4922192;28;20883;-78
2023/04/08 00:30:35;;;;;;;24.70;18.27;;;7.00;1.00;;;;;;4917666;28;20483;-77
2023/04/08 00:33:02;;;;;;;25.40;19.83;;;7.10;1.00;;;;;;4925070;28;20460;-77
2023/04/08 00:35:29;;;;;;;32.33;19.80;;;7.00;1.00;;;;;;4923717;28;20473;-77
2023/04/08 00:37:56;;;;;;;25.63;20.20;;;7.00;1.00;;;;;;4923991;28;20496;-77
2023/04/08 00:40:23;;;;;;;27.55;21.40;;;6.90;1.00;;;;;;4928602;28;20351;-78
2023/04/08 00:42:50;;;;;;;28.57;21.30;;;7.00;1.00;;;;;;4917982;28;20241;-78
2023/04/08 00:45:18;;;;;;;27.57;19.40;;;7.00;1.00;;;;;;4926740;28;20563;-78
2023/04/08 00:47:51;;;;;;;26.00;19.60;;;7.00;1.00;;;;;;4923070;28;20525;-78
2023/04/08 00:50:19;;;;;;;26.90;21.10;;;7.10;1.00;;;;;;4927391;28;21353;-77
2023/04/08 00:52:46;;;;;;;28.90;22.17;;;7.10;1.00;;;;;;4920405;28;20686;-77
2023/04/08 00:55:13;;;;;;;30.20;20.80;;;7.10;1.00;;;;;;4923806;28;20564;-77
2023/04/08 00:57:40;;;;;;;28.98;20.15;;;7.00;1.00;;;;;;4917726;28;20459;-76
2023/04/08 01:00:08;;;;;;;26.33;20.13;;;7.00;1.00;;;;;;4925798;28;20784;-77
2023/04/08 01:02:46;;;;;;;28.50;20.67;;;7.00;1.00;;;;;;4925611;28;20490;-77
2023/04/08 01:05:20;;;;;;;29.73;20.70;;;7.10;1.00;;;;;;4929175;28;20578;-77
2023/04/08 01:07:48;;;;;;;30.43;21.67;;;7.10;1.00;;;;;;4937064;28;20540;-77
2023/04/08 01:10:20;;;;;;;25.00;20.00;;;7.10;1.00;;;;;;4931744;28;20477;-77
2023/04/08 01:12:51;;;;;;;28.63;21.90;;;7.10;1.00;;;;;;4928315;28;20469;-77
2023/04/08 01:15:19;;;;;;;30.20;21.00;;;7.20;1.00;;;;;;4923258;28;20532;-77
2023/04/08 01:17:50;;;;;;;28.53;20.80;;;7.10;1.00;;;;;;4927318;28;20467;-77
2023/04/08 01:20:18;;;;;;;34.40;23.77;;;7.20;1.00;;;;;;4928862;28;20591;-77
2023/04/08 01:22:58;;;;;;;31.07;21.27;;;7.20;1.00;;;;;;4932918;28;20478;-77
2023/04/08 01:25:30;;;;;;;31.33;21.60;;;7.10;1.00;;;;;;4930115;28;20524;-77
2023/04/08 01:28:01;;;;;;;33.70;23.60;;;7.10;1.00;;;;;;4925260;28;20469;-77
2023/04/08 01:30:30;;;;;;;32.10;22.17;;;7.10;1.00;;;;;;4928554;28;21112;-78
2023/04/08 01:32:59;;;;;;;30.87;23.33;;;7.10;1.00;;;;;;4920514;28;20552;-78
2023/04/08 01:35:26;;;;;;;30.47;22.50;;;7.10;1.00;;;;;;4928378;28;20484;-78
2023/04/08 01:37:55;;;;;;;35.80;24.50;;;7.20;1.00;;;;;;4922521;28;20462;-78
2023/04/08 01:40:22;;;;;;;29.27;21.50;;;7.20;1.00;;;;;;4925845;28;20555;-78
2023/04/08 01:42:51;;;;;;;32.43;23.50;;;7.10;1.00;;;;;;4928827;28;20468;-78
2023/04/08 01:45:20;;;;;;;30.80;23.60;;;7.10;1.00;;;;;;4928133;28;20578;-78
2023/04/08 01:47:49;;;;;;;32.80;22.20;;;7.10;1.00;;;;;;4929793;28;20992;-78
2023/04/08 01:50:17;;;;;;;33.90;23.37;;;7.00;1.00;;;;;;4921721;28;20491;-78
2023/04/08 01:52:46;;;;;;;35.17;26.83;;;7.00;1.00;;;;;;4930391;28;22457;-78
2023/04/08 01:55:13;;;;;;;31.80;22.83;;;7.10;1.00;;;;;;4930838;28;20472;-78
2023/04/08 01:57:44;;;;;;;32.57;23.90;;;7.10;1.00;;;;;;4926219;28;21087;-77
2023/04/08 02:00:14;;;;;;;32.37;23.33;;;7.10;1.00;;;;;;4927702;28;20473;-77
2023/04/08 02:02:44;;;;;;;31.40;22.97;;;7.10;1.00;;;;;;4928286;28;21052;-78
2023/04/08 02:05:11;;;;;;;33.90;25.93;;;7.10;1.00;;;;;;4927868;28;20496;-76
2023/04/08 02:07:40;;;;;;;34.23;26.30;;;7.10;1.00;;;;;;4922924;28;20871;-77
2023/04/08 02:10:08;;;;;;;35.87;24.27;;;7.10;1.00;;;;;;4925673;28;20498;-77
2023/04/08 02:12:35;;;;;;;37.00;24.60;;;7.10;1.00;;;;;;4930601;28;21025;-78
2023/04/08 02:15:03;;;;;;;35.50;23.70;;;7.10;1.00;;;;;;4924388;28;20502;-78
2023/04/08 02:17:36;;;;;;;35.00;25.50;;;7.10;1.00;;;;;;4927764;28;21787;-77
2023/04/08 02:20:08;;;;;;;37.20;24.60;;;7.20;1.00;;;;;;4929140;28;20476;-76
2023/04/08 02:22:47;;;;;;;33.37;22.50;;;7.30;1.00;;;;;;4927263;28;20486;-79
2023/04/08 02:25:16;;;;;;;34.73;24.70;;;7.30;1.00;;;;;;4921071;28;20481;-79
2023/04/08 02:27:45;;;;;;;33.80;23.90;;;7.30;1.00;;;;;;4925550;28;20550;-79
2023/04/08 02:30:13;;;;;;;36.27;24.90;;;7.20;1.00;;;;;;4928714;28;20554;-77
2023/04/08 02:32:41;;;;;;;35.60;24.97;;;7.20;1.00;;;;;;4932118;28;20935;-77
2023/04/08 02:35:12;;;;;;;30.23;23.83;;;7.20;1.00;;;;;;4924064;28;20981;-78
2023/04/08 02:37:40;;;;;;;35.07;23.97;;;7.20;1.00;;;;;;4927234;28;20476;-78
2023/04/08 02:40:22;;;;;;;38.47;24.30;;;7.10;1.00;;;;;;4926935;28;20553;-78
2023/04/08 02:42:49;;;;;;;41.77;25.30;;;7.10;1.00;;;;;;4918285;28;20581;-79
2023/04/08 02:45:16;;;;;;;37.40;24.37;;;7.20;1.00;;;;;;4927457;28;20871;-79
2023/04/08 02:47:44;;;;;;;35.27;23.47;;;7.20;1.00;;;;;;4920360;28;20521;-79
2023/04/08 02:50:12;;;;;;;31.77;22.63;;;7.20;1.00;;;;;;4918970;28;20476;-79
2023/04/08 02:52:39;;;;;;;36.87;26.67;;;7.20;1.00;;;;;;4929516;28;20484;-79
2023/04/08 02:55:09;;;;;;;33.70;23.83;;;7.20;1.00;;;;;;4925755;28;20473;-78
2023/04/08 02:57:36;;;;;;;37.50;24.20;;;7.20;1.00;;;;;;4928005;28;20477;-80
2023/04/08 03:00:04;;;;;;;34.25;23.90;;;7.20;1.00;;;;;;4926104;28;20487;-79
2023/04/08 03:02:31;;;;;;;35.67;24.27;;;7.20;1.00;;;;;;4922814;28;20234;-79
2023/04/08 03:04:58;;;;;;;37.20;25.07;;;7.20;1.00;;;;;;4926291;28;20482;-80
2023/04/08 03:07:26;;;;;;;36.63;25.10;;;7.20;1.00;;;;;;4921059;28;20461;-79
2023/04/08 03:09:54;;;;;;;34.80;24.53;;;7.30;1.00;;;;;;4928850;28;20470;-79
2023/04/08 03:12:22;;;;;;;33.70;24.70;;;7.30;1.00;;;;;;4922423;28;21213;-79
2023/04/08 03:14:49;;;;;;;38.40;24.93;;;7.30;1.00;;;;;;4930217;28;20473;-79
2023/04/08 03:17:16;;;;;;;36.58;24.40;;;7.30;1.00;;;;;;4928731;28;20989;-78
2023/04/08 03:19:43;;;;;;;35.37;24.13;;;7.40;1.00;;;;;;4917909;28;20249;-78
2023/04/08 03:22:10;;;;;;;38.00;25.70;;;7.40;1.00;;;;;;4923178;28;20474;-79
2023/04/08 03:24:38;;;;;;;36.67;26.00;;;7.30;1.00;;;;;;4918469;28;20575;-79
2023/04/08 03:27:07;;;;;;;31.90;23.00;;;7.30;1.00;;;;;;4925353;28;20465;-79
2023/04/08 03:29:33;;;;;;;37.13;24.93;;;7.40;1.00;;;;;;4924820;28;20584;-80
2023/04/08 03:32:01;;;;;;;37.93;25.03;;;7.30;1.00;;;;;;4928181;28;21192;-81
2023/04/08 03:34:28;;;;;;;31.73;24.27;;;7.30;1.00;;;;;;4924011;28;20847;-80
2023/04/08 03:36:55;;;;;;;36.13;23.67;;;7.30;1.00;;;;;;4928193;28;21026;-80
2023/04/08 03:39:22;;;;;;;33.97;24.40;;;7.40;1.00;;;;;;4930881;28;20513;-79
2023/04/08 03:41:50;;;;;;;33.83;23.97;;;7.40;1.00;;;;;;4921773;28;20465;-80
2023/04/08 03:44:17;;;;;;;38.50;25.60;;;7.40;1.00;;;;;;4924894;28;22334;-80
2023/04/08 03:46:44;;;;;;;35.27;25.40;;;7.50;1.00;;;;;;4924173;28;20473;-80
2023/04/08 03:49:11;;;;;;;44.40;27.13;;;7.50;1.00;;;;;;4930663;28;20493;-80
2023/04/08 03:51:38;;;;;;;36.53;27.10;;;7.40;1.00;;;;;;4926522;28;20467;-80
2023/04/08 03:54:06;;;;;;;36.13;25.50;;;7.50;1.00;;;;;;4929464;28;20529;-80
2023/04/08 03:56:33;;;;;;;35.67;25.00;;;7.40;1.00;;;;;;4927248;28;20489;-80
2023/04/08 03:59:01;;;;;;;36.47;25.63;;;7.50;1.00;;;;;;4924585;28;20482;-80
2023/04/08 04:01:31;;;;;;;40.27;27.60;;;7.50;1.00;;;;;;4922951;28;20466;-80
2023/04/08 04:03:58;;;;;;;35.37;25.20;;;7.50;1.00;;;;;;4922580;28;20910;-80
2023/04/08 04:06:25;;;;;;;40.57;27.70;;;7.50;1.00;;;;;;4917494;28;21057;-80
2023/04/08 04:08:54;;;;;;;40.43;27.80;;;7.50;1.00;;;;;;4929692;28;20470;-80
2023/04/08 04:11:21;;;;;;;37.70;27.40;;;7.50;1.00;;;;;;4933004;28;20450;-80
2023/04/08 04:13:48;;;;;;;42.40;25.90;;;7.50;1.00;;;;;;4921112;28;20888;-80
2023/04/08 04:16:19;;;;;;;42.23;29.20;;;7.50;1.00;;;;;;4932264;28;20555;-79
2023/04/08 04:18:46;;;;;;;41.10;27.27;;;7.50;1.00;;;;;;4918700;28;20563;-80
2023/04/08 04:21:13;;;;;;;40.97;28.07;;;7.60;1.00;;;;;;4931084;28;20509;-80
2023/04/08 04:23:40;;;;;;;33.70;26.40;;;7.60;1.00;;;;;;4932838;28;20482;-80
2023/04/08 04:26:09;;;;;;;38.60;27.00;;;7.70;1.00;;;;;;4924001;28;20577;-81
2023/04/08 04:28:36;;;;;;;38.73;28.30;;;7.70;1.00;;;;;;4932947;28;20465;-80
2023/04/08 04:31:03;;;;;;;39.90;26.93;;;7.60;1.00;;;;;;4923908;28;20477;-81
2023/04/08 04:33:31;;;;;;;42.57;27.63;;;7.60;1.00;;;;;;4923900;28;21582;-80
2023/04/08 04:35:58;;;;;;;39.23;26.50;;;7.60;1.00;;;;;;4924330;28;20474;-80
2023/04/08 04:38:25;;;;;;;40.10;25.83;;;7.60;1.00;;;;;;4927922;28;21060;-78
2023/04/08 04:40:52;;;;;;;40.60;29.00;;;7.60;1.00;;;;;;4928891;28;20485;-79
2023/04/08 04:43:19;;;;;;;36.90;27.80;;;7.50;1.00;;;;;;4922319;28;20477;-79
2023/04/08 04:45:46;;;;;;;40.20;28.83;;;7.60;1.00;;;;;;4931796;28;20557;-79
2023/04/08 04:48:13;;;;;;;40.37;28.37;;;7.70;1.00;;;;;;4930657;28;20560;-79
2023/04/08 04:50:42;;;;;;;39.47;27.83;;;7.70;1.00;;;;;;4929958;28;20513;-79
2023/04/08 04:53:09;;;;;;;40.07;27.53;;;7.60;1.00;;;;;;4930111;28;20481;-79
2023/04/08 04:55:36;;;;;;;41.20;29.40;;;7.60;1.00;;;;;;4930236;28;20559;-80
2023/04/08 04:58:03;;;;;;;47.10;28.67;;;7.50;1.00;;;;;;4929098;28;20457;-80
2023/04/08 05:00:30;;;;;;;38.53;27.00;;;7.30;1.00;;;;;;4920582;28;20469;-80
2023/04/08 05:02:57;;;;;;;41.30;27.57;;;7.30;1.00;;;;;;4927298;28;20588;-80
2023/04/08 05:05:24;;;;;;;39.73;27.50;;;7.40;1.00;;;;;;4929857;28;20866;-81
2023/04/08 05:07:52;;;;;;;38.53;27.07;;;7.40;1.00;;;;;;4931526;28;21006;-80
2023/04/08 05:10:20;;;;;;;49.23;29.13;;;7.50;1.00;;;;;;4929254;28;21221;-80
2023/04/08 05:12:46;;;;;;;42.37;27.97;;;7.50;1.00;;;;;;4927363;28;20461;-79
2023/04/08 05:15:14;;;;;;;43.97;28.93;;;7.60;1.00;;;;;;4926740;28;20462;-80
2023/04/08 05:17:41;;;;;;;43.03;29.07;;;7.60;1.00;;;;;;4926667;28;20466;-80
2023/04/08 05:20:09;;;;;;;44.60;28.83;;;7.70;1.00;;;;;;4929348;28;20466;-79
2023/04/08 05:22:35;;;;;;;42.67;28.63;;;7.60;1.00;;;;;;4929138;28;20596;-79
2023/04/08 05:25:05;;;;;;;47.83;30.40;;;7.70;1.00;;;;;;4930029;28;20517;-79
2023/04/08 05:27:32;;;;;;;41.20;28.23;;;7.70;1.00;;;;;;4928534;28;20472;-79
2023/04/08 05:29:59;;;;;;;46.10;27.57;;;7.70;1.00;;;;;;4924066;28;20529;-79
2023/04/08 05:32:28;;;;;;;43.67;32.07;;;7.80;1.00;;;;;;4924825;28;21300;-79
2023/04/08 05:34:55;;;;;;;44.80;30.37;;;7.80;1.00;;;;;;4929765;28;20790;-79
2023/04/08 05:37:22;;;;;;;47.80;32.30;;;7.90;1.00;;;;;;4929395;28;20461;-78
2023/04/08 05:39:49;;;;;;;42.10;29.40;;;8.00;1.00;;;;;;4928497;28;20542;-80
2023/04/08 05:42:18;;;;;;;43.50;30.60;;;7.90;1.00;;;;;;4929216;28;20493;-79
2023/04/08 05:44:45;;;;;;;44.67;30.93;;;8.00;1.00;;;;;;4928073;28;21276;-80
2023/04/08 05:47:13;;;;;;;48.23;32.03;;;8.00;1.00;;;;;;4924786;28;20481;-79
2023/04/08 05:49:40;;;;;;;46.90;31.50;;;8.10;1.00;;;;;;4918463;28;20466;-79
2023/04/08 05:52:07;;;;;;;45.00;31.67;;;8.20;1.00;;;;;;4923201;28;20489;-80
2023/04/08 05:54:34;;;;;;;45.47;31.67;;;8.20;1.00;;;;;;4923430;28;20522;-78
2023/04/08 05:57:01;;;;;;;46.13;31.87;;;8.30;1.00;;;;;;4918540;28;20535;-79
2023/04/08 05:59:31;;;;;;;43.00;29.00;;;8.20;1.00;;;;;;4915684;28;20521;-80
2023/04/08 06:02:00;;;;;;;41.27;29.00;;;8.40;1.00;;;;;;4924939;28;20501;-81
2023/04/08 06:04:27;;;;;;;44.90;31.83;;;8.50;1.00;;;;;;4927498;28;20486;-80
2023/04/08 06:06:56;;;;;;;51.50;32.33;;;8.60;1.00;;;;;;4930104;28;20477;-80
2023/04/08 06:09:23;;;;;;;51.70;32.40;;;8.60;1.00;;;;;;4931146;28;20498;-81
2023/04/08 06:11:50;;;;;;;47.43;32.27;;;8.60;1.00;;;;;;4925939;28;20553;-80
2023/04/08 06:14:19;;;;;;;47.63;31.50;;;8.60;1.00;;;;;;4929856;28;20514;-81
2023/04/08 06:16:47;;;;;;;43.63;31.93;;;8.60;1.00;;;;;;4925144;28;20617;-81
2023/04/08 06:19:15;;;;;;;49.80;32.00;;;8.70;1.00;;;;;;4928895;28;20470;-80
2023/04/08 06:21:42;;;;;;;46.37;31.23;;;8.80;1.00;;;;;;4926192;28;20485;-80
2023/04/08 06:24:09;;;;;;;49.07;32.20;;;8.70;1.00;;;;;;4929910;28;20454;-80
2023/04/08 06:26:36;;;;;;;43.10;31.47;;;8.70;1.00;;;;;;4930096;28;20481;-80
2023/04/08 06:29:06;;;;;;;51.47;32.13;;;8.70;1.00;;;;;;4930176;28;20907;-79
2023/04/08 06:31:33;;;;;;;52.83;33.40;;;8.90;1.00;;;;;;4931092;28;20493;-80
2023/04/08 06:34:01;;;;;;;50.87;33.80;;;9.00;1.00;;;;;;4930998;28;21297;-80
2023/04/08 06:36:28;;;;;;;46.03;31.93;;;9.00;1.00;;;;;;4920118;28;20493;-81
2023/04/08 06:38:56;;;;;;;48.90;32.00;;;9.00;1.00;;;;;;4923528;28;20956;-80
2023/04/08 06:41:24;;;;;;;53.80;33.63;;;9.20;1.00;;;;;;4926192;28;20505;-79
2023/04/08 06:43:53;;;;;;;41.63;29.83;;;9.20;1.00;;;;;;4925899;28;20455;-79
2023/04/08 06:46:20;;;;;;;48.93;32.13;;;9.20;1.00;;;;;;4924011;28;20474;-79
2023/04/08 06:48:52;;;;;;;48.53;32.87;;;9.30;1.00;;;;;;4930379;28;20465;-79
2023/04/08 06:51:20;;;;;;;46.60;31.17;;;9.40;1.00;;;;;;4932907;28;20477;-79
2023/04/08 06:53:47;;;;;;;50.30;32.47;;;9.50;1.00;;;;;;4926253;28;20456;-79
2023/04/08 06:56:15;;;;;;;48.37;32.17;;;9.60;1.00;;;;;;4924274;28;21147;-80
2023/04/08 06:58:42;;;;;;;46.20;30.87;;;9.70;1.00;;;;;;4921549;28;20465;-79
2023/04/08 07:01:11;;;;;;;44.63;30.27;;;9.80;1.00;;;;;;4925797;28;20482;-78
2023/04/08 07:03:38;;;;;;;52.40;35.20;;;9.80;1.00;;;;;;4930550;28;20461;-79
2023/04/08 07:06:05;;;;;;;43.10;32.63;;;9.80;1.00;;;;;;4926053;28;21056;-80
2023/04/08 07:08:35;;;;;;;47.07;33.20;;;9.80;1.00;;;;;;4933297;28;20435;-79
2023/04/08 07:11:03;;;;;;;44.10;30.00;;;10.00;1.00;;;;;;4924572;28;20481;-78
2023/04/08 07:13:30;;;;;;;46.83;32.67;;;10.00;1.00;;;;;;4917274;28;20470;-79
2023/04/08 07:15:58;;;;;;;48.57;31.33;;;10.10;1.00;;;;;;4924107;28;20471;-80
2023/04/08 07:18:25;;;;;;;46.17;31.97;;;10.30;1.00;;;;;;4921684;28;20481;-79
2023/04/08 07:20:53;;;;;;;42.60;29.33;;;10.40;1.00;;;;;;4924050;28;20449;-78
2023/04/08 07:23:20;;;;;;;41.73;29.47;;;10.50;1.00;;;;;;4917084;28;21048;-80
2023/04/08 07:25:48;;;;;;;40.10;29.70;;;10.60;1.00;;;;;;4928355;28;20454;-80
2023/04/08 07:28:15;;;;;;;43.30;29.90;;;10.80;1.00;;;;;;4926052;28;20550;-80
2023/04/08 07:30:42;;;;;;;40.33;29.27;;;10.80;1.00;;;;;;4921312;28;20596;-79
2023/04/08 07:33:09;;;;;;;41.13;30.47;;;10.70;1.00;;;;;;4925882;28;20481;-81
2023/04/08 07:35:36;;;;;;;42.50;31.10;;;10.70;1.00;;;;;;4927091;28;20486;-79
2023/04/08 07:38:08;;;;;;;41.70;31.47;;;10.70;1.00;;;;;;4928279;28;20465;-79
2023/04/08 07:40:36;;;;;;;37.60;28.93;;;10.70;1.00;;;;;;4924773;28;20629;-80
2023/04/08 07:43:05;;;;;;;42.40;30.10;;;10.80;1.00;;;;;;4926578;28;20477;-80
2023/04/08 07:45:32;;;;;;;35.60;28.63;;;10.90;1.00;;;;;;4923968;28;20477;-80
2023/04/08 07:47:59;;;;;;;38.77;26.47;;;11.00;1.00;;;;;;4931375;28;20989;-79
2023/04/08 07:50:26;;;;;;;34.60;27.20;;;11.10;1.00;;;;;;4918236;28;20486;-80
2023/04/08 07:52:54;;;;;;;37.67;28.50;;;11.20;1.00;;;;;;4926723;28;20438;-78
2023/04/08 07:55:21;;;;;;;36.90;27.40;;;11.30;1.00;;;;;;4907557;28;20881;-79
2023/04/08 07:57:48;;;;;;;37.03;26.87;;;11.60;1.00;;;;;;4922259;28;20557;-79
2023/04/08 08:00:20;;;;;;;32.10;26.93;;;11.70;1.00;;;;;;4912004;28;20478;-79
2023/04/08 08:02:47;;;;;;;37.57;27.90;;;11.70;1.00;;;;;;4923974;28;20471;-79
2023/04/08 08:05:15;;;;;;;37.43;28.10;;;11.80;1.00;;;;;;4929484;28;20562;-79
2023/04/08 08:07:41;;;;;;;39.80;28.00;;;11.90;1.00;;;;;;4916116;28;21404;-80
2023/04/08 08:10:20;;;;;;;40.97;28.00;;;12.10;1.00;;;;;;4926093;28;20479;-79
2023/04/08 08:12:55;;;;;;;37.10;26.37;;;12.10;1.00;;;;;;4924401;28;20434;-80
2023/04/08 08:15:23;;;;;;;38.37;27.10;;;11.90;1.00;;;;;;4923044;28;20466;-80
2023/04/08 08:17:51;;;;;;;34.23;27.07;;;11.80;1.00;;;;;;4929174;28;20454;-80
2023/04/08 08:20:20;;;;;;;48.33;33.77;;;11.70;1.00;;;;;;4931988;28;20537;-79
2023/04/08 08:22:47;;;;;;;36.10;27.03;;;11.90;1.00;;;;;;4932024;28;20459;-79
2023/04/08 08:25:14;;;;;;;36.30;27.53;;;12.10;1.00;;;;;;4925298;28;20596;-81
2023/04/08 08:27:44;;;;;;;41.30;29.23;;;12.30;1.00;;;;;;4911428;28;20560;-79
2023/04/08 08:30:11;;;;;;;36.93;26.80;;;12.40;1.00;;;;;;4923292;28;21130;-82
2023/04/08 08:32:40;;;;;;;34.90;26.60;;;12.50;1.00;;;;;;4925202;28;20492;-80
2023/04/08 08:35:08;;;;;;;31.43;25.83;;;12.60;1.00;;;;;;4925808;28;20487;-80
2023/04/08 08:37:37;;;;;;;40.40;28.67;;;12.70;1.00;;;;;;4926370;28;20471;-79
2023/04/08 08:40:04;;;;;;;33.10;25.73;;;12.80;1.00;;;;;;4929284;28;20526;-79
2023/04/08 08:42:31;;;;;;;36.07;27.03;;;12.90;1.00;;;;;;4923486;28;20468;-79
2023/04/08 08:45:02;;;;;;;35.33;27.00;;;13.00;1.00;;;;;;4930600;28;20467;-78
2023/04/08 08:47:30;;;;;;;32.20;25.00;;;13.30;1.00;;;;;;4930175;28;20882;-79
2023/04/08 08:49:59;;;;;;;31.87;25.67;;;13.50;1.00;;;;;;4933647;28;20470;-80
2023/04/08 08:52:26;;;;;;;31.87;26.70;;;13.30;1.00;;;;;;4927348;28;20514;-80
2023/04/08 08:54:58;;;;;;;31.87;25.63;;;13.10;1.00;;;;;;4929741;28;20460;-79
2023/04/08 08:57:26;;;;;;;31.20;24.30;;;13.00;1.00;;;;;;4928271;28;20503;-79
2023/04/08 08:59:53;;;;;;;31.47;24.83;;;12.90;1.00;;;;;;4907498;28;20487;-79
2023/04/08 09:02:27;;;;;;;32.13;26.07;;;12.80;1.00;;;;;;4927896;28;20473;-79
2023/04/08 09:05:01;;;;;;;32.00;26.03;;;12.60;1.00;;;;;;4917799;28;20563;-79
2023/04/08 09:07:30;;;;;;;31.20;25.83;;;12.50;1.00;;;;;;4927772;28;20464;-80
2023/04/08 09:09:58;;;;;;;31.27;25.30;;;12.30;1.00;;;;;;4918579;28;21083;-79
2023/04/08 09:12:27;;;;;;;29.70;23.70;;;12.20;1.00;;;;;;4917861;28;20617;-81
2023/04/08 09:15:04;;;;;;;30.43;24.67;;;11.90;1.00;;;;;;4920781;28;20571;-80
2023/04/08 09:17:36;;;;;;;30.20;24.90;;;11.90;1.00;;;;;;4923994;28;20533;-81
2023/04/08 09:20:10;;;;;;;29.10;23.10;;;11.80;1.00;;;;;;4930978;28;20567;-79
2023/04/08 09:22:56;;;;;;;32.57;25.13;;;11.90;1.00;;;;;;4930467;28;21379;-80
2023/04/08 09:25:26;;;;;;;32.63;24.67;;;11.90;1.00;;;;;;4924791;28;20531;-79
2023/04/08 09:27:53;;;;;;;32.27;24.30;;;11.90;1.00;;;;;;4926502;28;20455;-80
2023/04/08 09:30:22;;;;;;;31.23;24.97;;;11.70;1.00;;;;;;4933068;28;20477;-79
2023/04/08 09:32:50;;;;;;;32.17;24.53;;;11.70;1.00;;;;;;4915567;28;20434;-80
2023/04/08 09:35:20;;;;;;;27.67;24.63;;;11.80;1.00;;;;;;4928382;28;20924;-79
2023/04/08 09:37:50;;;;;;;31.63;26.77;;;11.60;1.00;;;;;;4925006;28;20953;-79
2023/04/08 09:40:18;;;;;;;31.07;27.60;;;11.60;1.00;;;;;;4921529;28;20539;-80
2023/04/08 09:42:49;;;;;;;29.33;24.40;;;11.80;1.00;;;;;;4923953;28;20486;-80
2023/04/08 09:45:17;;;;;;;30.30;23.70;;;11.70;1.00;;;;;;4924934;28;20503;-81
2023/04/08 09:47:59;;;;;;;31.07;23.93;;;11.60;1.00;;;;;;4927123;28;20466;-79
2023/04/08 09:50:32;;;;;;;30.40;24.77;;;11.90;1.00;;;;;;4935588;28;20486;-79
2023/04/08 09:53:07;;;;;;;29.67;23.30;;;12.50;1.00;;;;;;4926428;28;20479;-81
2023/04/08 09:55:38;;;;;;;30.80;25.23;;;13.40;1.00;;;;;;4928755;28;20950;-80
2023/04/08 09:58:12;;;;;;;35.23;25.73;;;14.00;1.00;;;;;;4926159;28;20607;-80
2023/04/08 10:00:49;;;;;;;30.67;24.20;;;14.40;1.00;;;;;;4925545;28;20662;-80
2023/04/08 10:03:26;;;;;;;28.47;25.33;;;14.50;1.00;;;;;;4926905;28;20476;-81
2023/04/08 10:05:55;;;;;;;33.10;26.30;;;14.10;1.00;;;;;;4927780;28;20470;-81
2023/04/08 10:08:23;;;;;;;26.97;24.07;;;14.10;1.00;;;;;;4934009;28;20485;-79
2023/04/08 10:10:51;;;;;;;29.70;25.23;;;14.90;1.00;;;;;;4931142;28;20702;-80
2023/04/08 10:13:18;;;;;;;27.17;23.47;;;15.60;1.00;;;;;;4927665;28;20552;-81
2023/04/08 10:15:47;;;;;;;31.77;26.30;;;15.90;1.00;;;;;;4932706;28;20561;-80
2023/04/08 10:18:33;;;;;;;30.27;25.77;;;16.00;1.00;;;;;;4934745;28;20468;-79
2023/04/08 10:21:02;;;;;;;29.33;23.70;;;16.50;1.00;;;;;;4936513;28;20567;-79
2023/04/08 10:23:57;;;;;;;27.17;23.73;;;16.40;1.00;;;;;;4922027;28;20862;-79
2023/04/08 10:26:33;;;;;;;25.20;22.50;;;16.60;1.00;;;;;;4935726;28;20494;-80
2023/04/08 10:29:33;;;;;;;26.00;22.77;;;16.80;1.00;;;;;;4939850;28;20924;-80
2023/04/08 10:32:01;;;;;;;25.53;22.10;;;16.70;1.00;;;;;;4924651;28;20467;-78
2023/04/08 10:34:29;;;;;;;25.73;22.37;;;16.30;1.00;;;;;;4934732;28;20831;-81
2023/04/08 10:37:00;;;;;;;24.33;21.40;;;15.60;1.00;;;;;;4933516;28;20474;-81
2023/04/08 10:39:28;;;;;;;27.27;23.53;;;15.30;1.00;;;;;;4935159;28;20484;-79
2023/04/08 10:41:56;;;;;;;27.33;23.37;;;15.20;1.00;;;;;;4930541;28;20565;-79
2023/04/08 10:44:26;;;;;;;26.33;23.00;;;15.30;1.00;;;;;;4934820;28;20481;-81
2023/04/08 10:46:54;;;;;;;28.23;22.20;;;15.30;1.00;;;;;;4938016;28;20561;-79
2023/04/08 10:49:21;;;;;;;22.50;20.07;;;15.20;1.00;;;;;;4934680;28;20466;-82
2023/04/08 10:51:51;;;;;;;24.37;21.77;;;15.20;1.00;;;;;;4939813;28;20845;-80
2023/04/08 10:54:19;;;;;;;23.30;20.87;;;15.60;1.00;;;;;;4937329;28;20499;-81
2023/04/08 10:56:48;;;;;;;27.60;21.03;;;16.10;1.00;;;;;;4936449;28;20640;-81
2023/04/08 10:59:16;;;;;;;24.47;21.90;;;16.60;1.00;;;;;;4933310;28;20992;-81
2023/04/08 11:01:45;;;;;;;24.47;21.13;;;16.80;1.00;;;;;;4933895;28;20962;-80
2023/04/08 11:04:14;;;;;;;29.20;23.33;;;16.80;1.00;;;;;;4932368;28;20462;-80
2023/04/08 11:06:43;;;;;;;25.73;21.67;;;17.20;1.00;;;;;;4936902;28;20459;-81
2023/04/08 11:09:10;;;;;;;28.70;25.73;;;16.90;1.00;;;;;;4933146;28;20466;-80
2023/04/08 11:11:41;;;;;;;24.73;22.10;;;16.20;1.00;;;;;;4933170;28;20578;-79
2023/04/08 11:14:08;;;;;;;22.77;20.30;;;15.80;1.00;;;;;;4940134;28;20461;-79
2023/04/08 11:16:38;;;;;;;24.03;20.70;;;15.40;1.00;;;;;;4932133;28;20466;-80
2023/04/08 11:19:06;;;;;;;24.03;20.60;;;15.30;1.00;;;;;;4933892;28;20410;-80
2023/04/08 11:21:37;;;;;;;23.07;20.30;;;15.00;1.00;;;;;;4930262;28;20470;-79
2023/04/08 11:24:10;;;;;;;24.30;19.63;;;14.60;1.00;;;;;;4937227;28;20973;-80
2023/04/08 11:26:40;;;;;;;25.30;21.33;;;14.60;1.00;;;;;;4930091;28;20557;-79
2023/04/08 11:29:11;;;;;;;23.83;20.10;;;14.80;1.00;;;;;;4932987;28;20474;-79
2023/04/08 11:31:39;;;;;;;20.67;16.60;;;15.40;1.00;;;;;;4935192;28;20872;-80
2023/04/08 11:34:06;;;;;;;19.83;17.83;;;15.50;1.00;;;;;;4934017;28;20458;-80
2023/04/08 11:36:35;;;;;;;19.77;17.70;;;15.20;1.00;;;;;;4936201;28;20464;-81
2023/04/08 11:39:08;;;;;;;18.60;16.80;;;15.50;1.00;;;;;;4924294;28;20498;-81
2023/04/08 11:41:43;;;;;;;19.20;16.23;;;15.50;1.00;;;;;;4929336;28;20969;-78
2023/04/08 11:44:10;;;;;;;18.40;16.50;;;15.70;1.00;;;;;;4932211;28;20468;-79
2023/04/08 11:46:41;;;;;;;79.37;71.33;;;15.70;1.00;;;;;;4931297;28;21184;-80
2023/04/08 11:49:09;;;;;;;19.47;17.27;;;15.30;1.00;;;;;;4915742;28;20537;-80
2023/04/08 11:51:56;;;;;;;19.10;16.87;;;15.30;1.00;;;;;;4927900;28;20482;-80
2023/04/08 11:54:27;;;;;;;18.30;16.20;;;15.40;1.00;;;;;;4933784;28;20437;-79
2023/04/08 11:57:01;;;;;;;17.50;15.70;;;15.40;1.00;;;;;;4930506;28;20477;-78
2023/04/08 11:59:29;;;;;;;16.10;14.50;;;15.60;1.00;;;;;;4911686;28;21241;-79
2023/04/08 12:01:56;;;;;;;15.07;13.43;;;16.50;1.00;;;;;;4933414;28;20481;-81
2023/04/08 12:04:27;;;;;;;12.87;11.77;;;17.20;1.00;;;;;;4937622;28;20882;-81
2023/04/08 12:06:59;;;;;;;12.00;10.90;;;18.40;1.00;;;;;;4935349;28;20595;-81
2023/04/08 12:09:27;;;;;;;12.53;11.43;;;20.10;1.00;;;;;;4928673;28;20474;-79
2023/04/08 12:11:58;;;;;;;11.83;10.73;;;20.70;1.00;;;;;;4934273;28;20481;-81
2023/04/08 12:14:25;;;;;;;13.93;12.63;;;20.10;1.00;;;;;;4928050;28;20463;-81
2023/04/08 12:16:52;;;;;;;12.30;11.20;;;19.40;1.00;;;;;;4930438;28;20466;-80
2023/04/08 12:19:21;;;;;;;12.83;11.73;;;18.10;1.00;;;;;;4933628;28;20989;-80
2023/04/08 12:21:49;;;;;;;13.53;12.40;;;16.90;1.00;;;;;;4930627;28;20486;-79
2023/04/08 12:24:16;;;;;;;13.53;12.23;;;16.90;1.00;;;;;;4925019;28;20971;-80
2023/04/08 12:26:43;;;;;;;12.77;11.60;;;19.20;1.00;;;;;;4928111;28;20461;-80
2023/04/08 12:29:11;;;;;;;12.37;11.27;;;20.80;1.00;;;;;;4933596;28;20544;-80
2023/04/08 12:31:38;;;;;;;13.90;12.60;;;20.50;1.00;;;;;;4929265;28;20486;-79
2023/04/08 12:34:06;;;;;;;13.00;11.70;;;19.50;1.00;;;;;;4920541;28;20977;-79
2023/04/08 12:36:33;;;;;;;12.47;11.37;;;19.90;1.00;;;;;;4930385;28;20480;-79
2023/04/08 12:39:00;;;;;;;12.40;11.30;;;20.50;1.00;;;;;;4930789;28;20563;-80
2023/04/08 12:41:27;;;;;;;17.80;15.97;;;21.20;1.00;;;;;;4934424;28;20569;-80
2023/04/08 12:43:54;;;;;;;11.50;10.50;;;21.10;1.00;;;;;;4924237;28;20465;-80
2023/04/08 12:46:25;;;;;;;11.93;10.90;;;21.10;1.00;;;;;;4931235;28;20463;-81
2023/04/08 12:48:52;;;;;;;14.00;12.70;;;21.40;1.00;;;;;;4936154;28;20556;-79
2023/04/08 12:51:19;;;;;;;11.53;10.63;;;21.60;1.00;;;;;;4930255;28;20493;-80